createdAt,value
2022-08-27T00:00:44.918Z,26.60
2022-08-27T00:03:12.312Z,26.70
2022-08-27T00:05:39.964Z,26.70
2022-08-27T00:08:12.751Z,26.70
2022-08-27T00:10:40.928Z,26.60
2022-08-27T00:13:07.862Z,26.70
2022-08-27T00:15:34.754Z,26.70
2022-08-27T00:18:01.579Z,26.60
2022-08-27T00:20:28.389Z,26.60
2022-08-27T00:22:55.161Z,26.60
2022-08-27T00:25:22.582Z,26.60
2022-08-27T00:27:49.739Z,26.60
2022-08-27T00:30:19.581Z,26.60
2022-08-27T00:32:47.479Z,26.50
2022-08-27T00:35:16.075Z,26.50
2022-08-27T00:37:44.076Z,26.50
2022-08-27T00:40:14.814Z,26.50
2022-08-27T00:42:42.570Z,26.40
2022-08-27T00:45:10.227Z,26.40
2022-08-27T00:47:43.816Z,26.40
2022-08-27T00:50:20.933Z,26.40
2022-08-27T00:52:54.495Z,26.50
2022-08-27T00:55:29.781Z,26.60
2022-08-27T00:58:25.743Z,26.60
2022-08-27T01:00:53.560Z,26.60
2022-08-27T01:03:20.449Z,26.70
2022-08-27T01:05:49.941Z,26.70
2022-08-27T01:08:22.496Z,26.70
2022-08-27T01:10:50.834Z,26.70
2022-08-27T01:13:21.850Z,26.60
2022-08-27T01:16:10.232Z,26.60
2022-08-27T01:18:39.308Z,26.60
2022-08-27T01:21:25.998Z,26.60
2022-08-27T01:24:30.606Z,26.60
2022-08-27T01:26:59.485Z,26.50
2022-08-27T01:29:26.761Z,26.50
2022-08-27T01:31:53.583Z,26.50
2022-08-27T01:34:20.405Z,26.50
2022-08-27T01:36:47.142Z,26.50
2022-08-27T01:39:13.849Z,26.50
2022-08-27T01:41:40.972Z,26.40
2022-08-27T01:44:07.917Z,26.40
2022-08-27T01:46:36.476Z,26.00
2022-08-27T01:49:03.397Z,26.30
2022-08-27T01:51:30.135Z,26.30
2022-08-27T01:53:57.997Z,26.30
2022-08-27T01:56:25.578Z,26.40
2022-08-27T01:58:52.492Z,26.30
2022-08-27T02:01:19.691Z,26.40
2022-08-27T02:03:48.259Z,26.30
2022-08-27T02:06:15.465Z,26.30
2022-08-27T02:08:42.617Z,26.20
2022-08-27T02:11:09.981Z,26.20
2022-08-27T02:13:37.063Z,26.30
2022-08-27T02:16:04.531Z,26.30
2022-08-27T02:18:31.359Z,26.30
2022-08-27T02:20:58.142Z,26.30
2022-08-27T02:23:24.839Z,26.30
2022-08-27T02:25:51.668Z,26.30
2022-08-27T02:28:18.435Z,26.20
2022-08-27T02:30:45.615Z,26.20
2022-08-27T02:33:13.500Z,26.20
2022-08-27T02:35:42.172Z,26.10
2022-08-27T02:38:09.340Z,26.10
2022-08-27T02:40:37.330Z,26.10
2022-08-27T02:43:04.772Z,26.10
2022-08-27T02:45:31.791Z,26.10
2022-08-27T02:47:58.520Z,26.10
2022-08-27T02:50:27.034Z,26.10
2022-08-27T02:52:54.797Z,26.10
2022-08-27T02:55:22.467Z,26.10
2022-08-27T02:57:49.197Z,26.00
2022-08-27T03:00:19.153Z,26.00
2022-08-27T03:02:46.003Z,26.00
2022-08-27T03:05:13.984Z,26.10
2022-08-27T03:07:41.532Z,26.10
2022-08-27T03:10:10.011Z,26.10
2022-08-27T03:12:37.082Z,26.10
2022-08-27T03:15:08.983Z,26.10
2022-08-27T03:17:54.881Z,26.10
2022-08-27T03:20:22.693Z,26.00
2022-08-27T03:22:49.445Z,26.10
2022-08-27T03:25:16.181Z,26.00
2022-08-27T03:27:43.017Z,26.10
2022-08-27T03:30:13.203Z,26.00
2022-08-27T03:32:40.038Z,26.00
2022-08-27T03:35:07.050Z,26.00
2022-08-27T03:37:33.914Z,26.10
2022-08-27T03:40:00.706Z,26.00
2022-08-27T03:42:27.673Z,25.90
2022-08-27T03:44:54.455Z,25.90
2022-08-27T03:47:22.543Z,25.90
2022-08-27T03:49:49.981Z,25.90
2022-08-27T03:52:17.125Z,25.90
2022-08-27T03:54:43.806Z,25.90
2022-08-27T03:57:11.339Z,25.80
2022-08-27T03:59:38.279Z,25.80
2022-08-27T04:02:05.544Z,25.70
2022-08-27T04:04:32.582Z,25.70
2022-08-27T04:06:59.968Z,25.70
2022-08-27T04:09:26.883Z,25.50
2022-08-27T04:11:53.680Z,25.40
2022-08-27T04:14:26.961Z,25.30
2022-08-27T04:16:56.197Z,25.00
2022-08-27T04:19:27.675Z,24.90
2022-08-27T04:21:59.208Z,24.60
2022-08-27T04:24:25.970Z,24.40
2022-08-27T04:26:52.680Z,24.30
2022-08-27T04:29:19.425Z,24.20
2022-08-27T04:31:46.539Z,24.10
2022-08-27T04:34:13.290Z,24.00
2022-08-27T04:36:39.998Z,24.20
2022-08-27T04:39:06.700Z,24.30
2022-08-27T04:41:34.237Z,24.20
2022-08-27T04:44:07.125Z,24.10
2022-08-27T04:46:37.499Z,24.10
2022-08-27T04:49:10.528Z,24.20
2022-08-27T04:51:40.045Z,24.30
2022-08-27T04:54:08.019Z,24.30
2022-08-27T04:56:35.937Z,24.30
2022-08-27T04:59:05.016Z,24.40
2022-08-27T05:01:31.940Z,24.40
2022-08-27T05:03:58.765Z,24.40
2022-08-27T05:06:25.985Z,24.50
2022-08-27T05:08:54.386Z,24.50
2022-08-27T05:11:23.075Z,24.60
2022-08-27T05:13:50.301Z,24.50
2022-08-27T05:16:22.344Z,24.60
2022-08-27T05:18:51.020Z,24.60
2022-08-27T05:21:24.626Z,24.70
2022-08-27T05:23:53.511Z,24.60
2022-08-27T05:26:21.155Z,24.50
2022-08-27T05:28:48.278Z,24.50
2022-08-27T05:31:16.087Z,24.60
2022-08-27T05:33:44.170Z,24.70
2022-08-27T05:36:20.556Z,24.70
2022-08-27T05:38:51.419Z,24.80
2022-08-27T05:41:21.716Z,24.80
2022-08-27T05:43:50.338Z,24.60
2022-08-27T05:46:20.363Z,24.40
2022-08-27T05:48:47.771Z,24.40
2022-08-27T05:51:25.140Z,24.40
2022-08-27T05:53:56.480Z,24.30
2022-08-27T05:56:25.254Z,24.40
2022-08-27T05:59:10.783Z,24.40
2022-08-27T06:01:42.100Z,24.50
2022-08-27T06:04:09.809Z,24.60
2022-08-27T06:06:38.897Z,24.70
2022-08-27T06:09:06.588Z,24.70
2022-08-27T06:11:34.185Z,24.70
2022-08-27T06:14:00.940Z,24.90
2022-08-27T06:16:28.038Z,25.00
2022-08-27T06:18:57.187Z,25.10
2022-08-27T06:21:24.972Z,25.10
2022-08-27T06:23:52.953Z,25.20
2022-08-27T06:26:21.078Z,25.10
2022-08-27T06:28:47.944Z,25.20
2022-08-27T06:31:17.942Z,25.30
2022-08-27T06:33:46.638Z,25.30
2022-08-27T06:36:16.618Z,25.40
2022-08-27T06:38:44.099Z,25.40
2022-08-27T06:41:16.579Z,25.30
2022-08-27T06:43:51.092Z,25.40
2022-08-27T06:46:20.574Z,25.40
2022-08-27T06:48:48.355Z,25.50
2022-08-27T06:51:21.308Z,25.60
2022-08-27T06:53:48.515Z,25.70
2022-08-27T06:56:16.852Z,25.70
2022-08-27T06:58:44.479Z,25.70
2022-08-27T07:01:18.980Z,25.70
2022-08-27T07:03:46.389Z,25.70
2022-08-27T07:06:17.855Z,25.80
2022-08-27T07:08:53.092Z,25.90
2022-08-27T07:11:21.224Z,26.00
2022-08-27T07:13:49.575Z,26.00
2022-08-27T07:16:22.231Z,26.10
2022-08-27T07:18:51.811Z,26.10
2022-08-27T07:21:21.713Z,26.20
2022-08-27T07:23:50.842Z,26.20
2022-08-27T07:26:19.274Z,26.20
2022-08-27T07:28:46.691Z,26.10
2022-08-27T07:31:19.219Z,26.10
2022-08-27T07:33:52.228Z,26.10
2022-08-27T07:36:23.608Z,26.20
2022-08-27T07:39:00.876Z,26.10
2022-08-27T07:41:32.771Z,26.00
2022-08-27T07:44:18.895Z,26.00
2022-08-27T07:46:48.202Z,26.00
2022-08-27T07:49:19.056Z,26.20
2022-08-27T07:51:46.282Z,26.30
2022-08-27T07:54:13.248Z,26.50
2022-08-27T07:56:40.286Z,26.70
2022-08-27T07:59:07.287Z,26.80
2022-08-27T08:01:34.390Z,26.90
2022-08-27T08:04:01.294Z,26.90
2022-08-27T08:06:28.174Z,27.00
2022-08-27T08:08:55.052Z,27.10
2022-08-27T08:11:22.058Z,27.10
2022-08-27T08:13:48.898Z,27.00
2022-08-27T08:16:16.024Z,27.10
2022-08-27T08:18:42.856Z,27.00
2022-08-27T08:21:12.998Z,27.00
2022-08-27T08:23:40.552Z,27.10
2022-08-27T08:26:08.295Z,27.10
2022-08-27T08:28:35.122Z,27.00
2022-08-27T08:31:02.231Z,26.90
2022-08-27T08:33:31.487Z,26.80
2022-08-27T08:36:12.843Z,26.70
2022-08-27T08:38:41.180Z,26.70
2022-08-27T08:41:22.719Z,26.60
2022-08-27T08:43:51.679Z,26.70
2022-08-27T08:46:27.387Z,26.80
2022-08-27T08:48:59.801Z,26.80
2022-08-27T08:51:36.485Z,26.90
2022-08-27T08:54:26.926Z,26.90
2022-08-27T08:57:03.685Z,27.00
2022-08-27T08:59:38.696Z,27.00
2022-08-27T09:02:13.557Z,27.00
2022-08-27T09:04:43.803Z,27.00
2022-08-27T09:07:18.448Z,27.10
2022-08-27T09:10:01.485Z,27.10
2022-08-27T09:12:32.548Z,27.10
2022-08-27T09:15:15.737Z,27.10
2022-08-27T09:17:43.403Z,27.20
2022-08-27T09:20:13.266Z,27.20
2022-08-27T09:23:06.247Z,27.30
2022-08-27T09:25:35.815Z,27.30
2022-08-27T09:28:28.414Z,27.40
2022-08-27T09:30:58.355Z,27.50
2022-08-27T09:33:25.938Z,27.60
2022-08-27T09:36:14.809Z,27.70
2022-08-27T09:39:08.788Z,27.80
2022-08-27T09:41:45.806Z,27.80
2022-08-27T09:44:17.179Z,27.90
2022-08-27T09:46:56.830Z,28.00
2022-08-27T09:49:24.592Z,28.10
2022-08-27T09:51:52.777Z,28.10
2022-08-27T09:54:42.410Z,28.10
2022-08-27T09:57:11.034Z,28.20
2022-08-27T09:59:43.350Z,28.20
2022-08-27T10:02:20.899Z,28.40
2022-08-27T10:04:51.917Z,28.50
2022-08-27T10:07:33.895Z,28.60
2022-08-27T10:10:28.577Z,28.70
2022-08-27T10:12:58.487Z,28.80
2022-08-27T10:15:31.562Z,28.90
2022-08-27T10:18:16.866Z,29.10
2022-08-27T10:20:43.529Z,29.10
2022-08-27T10:23:26.904Z,29.40
2022-08-27T10:26:12.421Z,29.50
2022-08-27T10:28:59.656Z,29.60
2022-08-27T10:31:26.452Z,29.70
2022-08-27T10:34:08.819Z,29.90
2022-08-27T10:36:49.466Z,30.40
2022-08-27T10:39:42.294Z,30.20
2022-08-27T10:42:27.359Z,30.30
2022-08-27T10:45:14.913Z,30.40
2022-08-27T10:48:05.329Z,30.50
2022-08-27T10:51:11.235Z,30.50
2022-08-27T10:54:01.984Z,30.60
2022-08-27T10:57:14.481Z,30.80
2022-08-27T10:59:54.485Z,31.10
2022-08-27T11:02:45.340Z,31.30
2022-08-27T11:05:32.173Z,31.30
2022-08-27T11:08:23.217Z,31.40
2022-08-27T11:10:56.861Z,31.60
2022-08-27T11:13:35.488Z,31.70
2022-08-27T11:16:13.370Z,31.50
2022-08-27T11:19:19.445Z,31.70
2022-08-27T11:22:00.569Z,31.70
2022-08-27T11:24:35.336Z,31.90
2022-08-27T11:27:05.621Z,32.10
2022-08-27T11:29:34.953Z,32.40
2022-08-27T11:32:13.710Z,32.60
2022-08-27T11:34:47.559Z,32.70
2022-08-27T11:37:27.843Z,32.80
2022-08-27T11:40:25.475Z,32.80
2022-08-27T11:42:56.648Z,33.10
2022-08-27T11:45:38.153Z,33.30
2022-08-27T11:48:32.694Z,33.50
2022-08-27T11:51:01.968Z,33.70
2022-08-27T11:53:51.938Z,33.90
2022-08-27T11:56:41.567Z,34.20
2022-08-27T11:59:21.702Z,34.60
2022-08-27T12:01:51.570Z,34.90
2022-08-27T12:04:30.511Z,35.00
2022-08-27T12:07:30.662Z,35.20
2022-08-27T12:09:58.008Z,35.70
2022-08-27T12:12:37.345Z,36.00
2022-08-27T12:15:31.006Z,36.20
2022-08-27T12:18:02.603Z,36.50
2022-08-27T12:21:03.182Z,36.70
2022-08-27T12:23:57.252Z,36.60
2022-08-27T12:26:32.621Z,36.70
2022-08-27T12:29:27.780Z,37.00
2022-08-27T12:32:30.008Z,37.40
2022-08-27T12:35:17.727Z,37.90
2022-08-27T12:37:49.368Z,38.20
2022-08-27T12:40:40.938Z,38.00
2022-08-27T12:43:26.372Z,38.00
2022-08-27T12:46:06.636Z,38.40
2022-08-27T12:48:39.338Z,38.80
2022-08-27T12:51:22.761Z,38.80
2022-08-27T12:54:16.361Z,39.50
2022-08-27T12:56:58.142Z,39.60
2022-08-27T13:00:19.496Z,40.60
2022-08-27T13:03:18.495Z,41.20
2022-08-27T13:05:49.554Z,41.80
2022-08-27T13:08:23.897Z,41.60
2022-08-27T13:10:50.785Z,42.20
2022-08-27T13:13:20.756Z,42.90
2022-08-27T13:15:55.692Z,42.80
2022-08-27T13:18:23.581Z,42.70
2022-08-27T13:20:59.982Z,41.60
2022-08-27T13:23:28.089Z,39.90
2022-08-27T13:26:06.066Z,39.50
2022-08-27T13:28:34.357Z,39.80
2022-08-27T13:31:02.855Z,40.30
2022-08-27T13:33:34.157Z,40.80
2022-08-27T13:36:03.515Z,40.70
2022-08-27T13:38:50.793Z,40.20
2022-08-27T13:41:33.342Z,39.10
2022-08-27T13:44:31.575Z,37.90
2022-08-27T13:47:05.145Z,37.40
2022-08-27T13:49:34.649Z,38.00
2022-08-27T13:52:10.083Z,38.80
2022-08-27T13:54:36.821Z,38.60
2022-08-27T13:57:08.773Z,39.10
2022-08-27T13:59:42.189Z,39.50
2022-08-27T14:02:10.246Z,39.70
2022-08-27T14:04:45.238Z,39.80
2022-08-27T14:07:23.811Z,39.60
2022-08-27T14:09:55.067Z,39.20
2022-08-27T14:12:33.646Z,39.00
2022-08-27T14:15:12.670Z,38.60
2022-08-27T14:17:39.715Z,38.80
2022-08-27T14:20:07.579Z,39.00
2022-08-27T14:22:36.223Z,38.50
2022-08-27T14:25:03.291Z,38.20
2022-08-27T14:27:29.980Z,38.10
2022-08-27T14:29:56.725Z,38.40
2022-08-27T14:32:23.405Z,38.30
2022-08-27T14:34:50.220Z,38.60
2022-08-27T14:37:17.115Z,38.70
2022-08-27T14:39:45.037Z,38.90
2022-08-27T14:42:13.448Z,38.70
2022-08-27T14:44:41.218Z,38.10
2022-08-27T14:47:10.191Z,37.20
2022-08-27T14:49:40.537Z,35.90
2022-08-27T14:52:08.696Z,34.70
2022-08-27T14:54:35.649Z,33.70
2022-08-27T14:57:03.477Z,33.10
2022-08-27T14:59:30.376Z,32.70
2022-08-27T15:01:58.749Z,32.60
2022-08-27T15:04:26.583Z,32.40
2022-08-27T15:06:54.840Z,32.10
2022-08-27T15:09:22.310Z,31.90
2022-08-27T15:11:49.459Z,32.70
2022-08-27T15:14:26.640Z,34.70
2022-08-27T15:16:54.042Z,36.50
2022-08-27T15:19:22.819Z,38.00
2022-08-27T15:21:51.417Z,38.90
2022-08-27T15:24:18.086Z,39.30
2022-08-27T15:26:45.611Z,39.70
2022-08-27T15:29:12.757Z,39.80
2022-08-27T15:31:40.044Z,40.00
2022-08-27T15:34:06.994Z,40.20
2022-08-27T15:36:34.459Z,40.20
2022-08-27T15:39:01.535Z,40.20
2022-08-27T15:41:29.490Z,40.10
2022-08-27T15:43:56.766Z,40.00
2022-08-27T15:46:23.744Z,39.90
2022-08-27T15:48:50.660Z,39.90
2022-08-27T15:51:21.605Z,39.80
2022-08-27T15:53:48.413Z,39.40
2022-08-27T15:56:15.736Z,38.90
2022-08-27T15:58:42.512Z,38.50
2022-08-27T16:01:13.189Z,38.10
2022-08-27T16:03:43.531Z,37.70
2022-08-27T16:06:10.453Z,37.30
2022-08-27T16:08:41.996Z,36.90
2022-08-27T16:11:09.499Z,36.50
2022-08-27T16:13:37.794Z,36.10
2022-08-27T16:16:06.633Z,35.70
2022-08-27T16:18:35.079Z,35.30
2022-08-27T16:21:03.671Z,35.00
2022-08-27T16:23:31.677Z,34.70
2022-08-27T16:25:59.013Z,34.30
2022-08-27T16:28:26.376Z,34.10
2022-08-27T16:30:54.817Z,33.90
2022-08-27T16:33:23.446Z,33.80
2022-08-27T16:35:51.048Z,33.70
2022-08-27T16:38:19.345Z,33.60
2022-08-27T16:40:54.075Z,33.50
2022-08-27T16:43:24.589Z,33.20
2022-08-27T16:45:53.050Z,32.90
2022-08-27T16:48:38.747Z,32.10
2022-08-27T16:51:07.884Z,32.30
2022-08-27T16:53:39.627Z,32.10
2022-08-27T16:56:06.809Z,31.90
2022-08-27T16:58:33.629Z,31.60
2022-08-27T17:01:06.236Z,31.30
2022-08-27T17:04:04.701Z,31.10
2022-08-27T17:06:27.120Z,30.90
2022-08-27T17:08:54.985Z,30.80
2022-08-27T17:11:27.955Z,30.50
2022-08-27T17:13:58.602Z,30.30
2022-08-27T17:16:29.468Z,30.20
2022-08-27T17:18:58.364Z,30.20
2022-08-27T17:21:29.655Z,30.00
2022-08-27T17:23:59.347Z,30.00
2022-08-27T17:26:26.473Z,29.90
2022-08-27T17:28:53.374Z,29.80
2022-08-27T17:31:28.092Z,29.60
2022-08-27T17:33:58.133Z,29.50
2022-08-27T17:36:27.894Z,29.40
2022-08-27T17:38:55.198Z,29.20
2022-08-27T17:41:25.718Z,29.20
2022-08-27T17:43:52.991Z,29.10
2022-08-27T17:46:19.773Z,29.10
2022-08-27T17:48:46.976Z,29.10
2022-08-27T17:51:13.741Z,29.00
2022-08-27T17:53:47.153Z,29.00
2022-08-27T17:56:19.077Z,28.90
2022-08-27T17:58:47.240Z,28.80
2022-08-27T18:01:20.838Z,28.70
2022-08-27T18:03:48.143Z,28.60
2022-08-27T18:06:15.792Z,28.50
2022-08-27T18:08:42.673Z,28.40
2022-08-27T18:11:12.092Z,28.50
2022-08-27T18:13:39.699Z,28.40
2022-08-27T18:16:07.331Z,28.30
2022-08-27T18:18:35.099Z,28.30
2022-08-27T18:21:02.087Z,28.20
2022-08-27T18:23:28.801Z,28.20
2022-08-27T18:25:56.443Z,28.20
2022-08-27T18:28:23.521Z,28.20
2022-08-27T18:30:50.805Z,28.20
2022-08-27T18:33:17.615Z,28.20
2022-08-27T18:35:44.475Z,28.10
2022-08-27T18:38:11.554Z,28.10
2022-08-27T18:40:43.493Z,28.10
2022-08-27T18:43:10.819Z,28.00
2022-08-27T18:45:39.347Z,27.90
2022-08-27T18:48:15.999Z,27.70
2022-08-27T18:50:46.307Z,27.70
2022-08-27T18:53:15.608Z,27.60
2022-08-27T18:55:42.594Z,27.50
2022-08-27T18:58:09.624Z,27.50
2022-08-27T19:00:37.754Z,27.60
2022-08-27T19:03:04.705Z,27.60
2022-08-27T19:05:31.925Z,27.50
2022-08-27T19:07:58.692Z,27.50
2022-08-27T19:10:26.372Z,27.50
2022-08-27T19:12:54.384Z,27.40
2022-08-27T19:15:21.250Z,27.30
2022-08-27T19:17:53.219Z,27.20
2022-08-27T19:20:20.316Z,27.20
2022-08-27T19:22:48.464Z,27.20
2022-08-27T19:25:16.678Z,27.20
2022-08-27T19:27:44.951Z,27.10
2022-08-27T19:30:13.077Z,27.20
2022-08-27T19:32:39.837Z,27.10
2022-08-27T19:35:07.001Z,27.10
2022-08-27T19:37:37.487Z,27.20
2022-08-27T19:40:07.493Z,27.10
2022-08-27T19:42:34.748Z,27.10
2022-08-27T19:45:01.751Z,27.00
2022-08-27T19:47:28.547Z,27.00
2022-08-27T19:49:56.314Z,26.90
2022-08-27T19:52:23.672Z,26.90
2022-08-27T19:55:12.580Z,26.90
2022-08-27T19:57:37.291Z,26.90
2022-08-27T20:00:06.679Z,26.80
2022-08-27T20:02:34.022Z,26.80
2022-08-27T20:05:17.587Z,26.70
2022-08-27T20:07:45.736Z,26.60
2022-08-27T20:10:12.465Z,26.60
2022-08-27T20:12:39.243Z,26.60
2022-08-27T20:15:07.281Z,26.60
2022-08-27T20:17:35.133Z,26.60
2022-08-27T20:20:02.088Z,26.40
2022-08-27T20:22:28.854Z,26.40
2022-08-27T20:24:55.688Z,26.30
2022-08-27T20:27:22.522Z,26.40
2022-08-27T20:29:49.489Z,26.40
2022-08-27T20:32:16.330Z,26.40
2022-08-27T20:34:43.294Z,26.40
2022-08-27T20:37:10.074Z,26.30
2022-08-27T20:39:37.235Z,26.30
2022-08-27T20:42:04.483Z,26.70
2022-08-27T20:44:32.394Z,26.40
2022-08-27T20:47:01.015Z,26.30
2022-08-27T20:49:28.703Z,26.30
2022-08-27T20:52:03.271Z,26.30
2022-08-27T20:54:31.872Z,26.20
2022-08-27T20:56:59.027Z,26.20
2022-08-27T20:59:45.031Z,26.20
2022-08-27T21:02:13.884Z,26.20
2022-08-27T21:04:46.486Z,26.10
2022-08-27T21:07:18.516Z,26.10
2022-08-27T21:09:56.459Z,26.10
2022-08-27T21:12:28.662Z,26.10
2022-08-27T21:14:56.692Z,25.90
2022-08-27T21:17:27.235Z,25.80
2022-08-27T21:19:54.617Z,25.70
2022-08-27T21:22:22.209Z,25.70
2022-08-27T21:24:49.045Z,25.70
2022-08-27T21:27:17.564Z,25.70
2022-08-27T21:29:45.021Z,25.80
2022-08-27T21:32:12.593Z,25.70
2022-08-27T21:34:41.641Z,25.70
2022-08-27T21:37:11.000Z,25.70
2022-08-27T21:39:38.717Z,25.60
2022-08-27T21:42:05.656Z,25.70
2022-08-27T21:44:32.556Z,25.60
2022-08-27T21:47:01.620Z,25.50
2022-08-27T21:49:28.464Z,25.60
2022-08-27T21:51:55.233Z,25.60
2022-08-27T21:54:23.419Z,25.70
2022-08-27T21:56:53.439Z,25.70
2022-08-27T21:59:20.262Z,25.70
2022-08-27T22:01:48.940Z,25.70
2022-08-27T22:04:17.420Z,25.70
2022-08-27T22:06:44.210Z,25.70
2022-08-27T22:09:11.109Z,25.70
2022-08-27T22:11:37.886Z,25.70
2022-08-27T22:14:04.870Z,25.70
2022-08-27T22:16:31.685Z,25.60
2022-08-27T22:18:58.431Z,25.60
2022-08-27T22:21:25.706Z,25.60
2022-08-27T22:23:53.179Z,25.60
2022-08-27T22:26:21.246Z,25.40
2022-08-27T22:28:48.714Z,25.60
2022-08-27T22:31:15.849Z,25.60
2022-08-27T22:33:42.919Z,25.60
2022-08-27T22:36:10.262Z,25.70
2022-08-27T22:38:37.041Z,25.70
2022-08-27T22:41:05.722Z,25.70
2022-08-27T22:43:33.980Z,25.70
2022-08-27T22:46:00.679Z,25.60
2022-08-27T22:48:27.512Z,25.60
2022-08-27T22:50:54.213Z,25.60
2022-08-27T22:53:21.026Z,25.50
2022-08-27T22:55:50.215Z,25.50
2022-08-27T22:58:18.026Z,25.50
2022-08-27T23:00:50.156Z,25.50
2022-08-27T23:03:19.673Z,25.40
2022-08-27T23:05:46.712Z,25.30
2022-08-27T23:08:14.311Z,25.40
2022-08-27T23:10:42.879Z,25.30
2022-08-27T23:13:10.496Z,25.20
2022-08-27T23:15:38.657Z,25.10
2022-08-27T23:18:05.600Z,25.20
2022-08-27T23:20:33.126Z,25.30
2022-08-27T23:23:00.168Z,25.20
2022-08-27T23:25:45.913Z,25.20
2022-08-27T23:28:15.106Z,25.20
2022-08-27T23:30:43.725Z,25.20
2022-08-27T23:33:10.937Z,25.10
2022-08-27T23:35:37.725Z,25.10
2022-08-27T23:38:04.664Z,25.10
2022-08-27T23:40:31.533Z,25.20
2022-08-27T23:42:58.379Z,25.10
2022-08-27T23:45:26.326Z,25.00
2022-08-27T23:47:53.507Z,25.10
2022-08-27T23:50:23.084Z,25.10
2022-08-27T23:52:58.249Z,25.10
2022-08-27T23:55:25.274Z,25.00
2022-08-27T23:57:51.976Z,25.10
